Time;durP1;ratioP1;P1;durP2;ratioP2;P2;SDS_P1;SDS_P2;PMS_P1;PMS_P2;Temp;Humidity;BMP_temperature;BMP_pressure;BME280_temperature;BME280_humidity;BME280_pressure;Samples;Min_cycle;Max_cycle;Signal;HPM_P1;HPM_P2
2022/07/27 00:00:32;;;;;;;25.32;7.30;;;;;;;;;;1686727;85;20959;-86
2022/07/27 00:02:58;;;;;;;15.65;7.30;;;;;;;;;;1686916;85;20915;-85
2022/07/27 00:05:24;;;;;;;15.38;7.62;;;;;;;;;;1686556;85;21046;-85
2022/07/27 00:07:50;;;;;;;16.02;8.08;;;;;;;;;;1686844;85;20892;-85
2022/07/27 00:10:16;;;;;;;17.00;7.50;;;;;;;;;;1690904;84;21705;-85
2022/07/27 00:12:41;;;;;;;16.93;8.35;;;;;;;;;;1691709;84;20919;-86
2022/07/27 00:15:08;;;;;;;13.48;7.80;;;;;;;;;;1691904;84;20991;-86
2022/07/27 00:17:35;;;;;;;13.20;7.60;;;;;;;;;;1691913;84;21047;-85
2022/07/27 00:20:01;;;;;;;14.40;7.83;;;;;;;;;;1691935;84;21066;-85
2022/07/27 00:22:27;;;;;;;18.98;7.30;;;;;;;;;;1691970;84;21203;-85
2022/07/27 00:24:53;;;;;;;16.57;7.40;;;;;;;;;;1691866;84;20919;-85
2022/07/27 00:27:18;;;;;;;19.75;7.97;;;;;;;;;;1691776;84;21827;-85
2022/07/27 00:29:44;;;;;;;16.42;7.10;;;;;;;;;;1692077;84;20935;-85
2022/07/27 00:32:11;;;;;;;15.95;7.97;;;;;;;;;;1691938;84;21066;-86
2022/07/27 00:34:36;;;;;;;17.70;8.65;;;;;;;;;;1692007;84;21300;-86
2022/07/27 00:37:02;;;;;;;17.75;8.93;;;;;;;;;;1691661;84;20974;-86
2022/07/27 00:39:28;;;;;;;17.37;8.35;;;;;;;;;;1691997;84;20972;-85
2022/07/27 00:41:54;;;;;;;22.37;8.50;;;;;;;;;;1691839;84;21624;-86
2022/07/27 00:44:28;;;;;;;17.62;8.88;;;;;;;;;;1691866;84;20836;-85
2022/07/27 00:46:54;;;;;;;20.62;9.23;;;;;;;;;;1691766;84;21128;-86
2022/07/27 00:49:20;;;;;;;19.17;9.00;;;;;;;;;;1691821;84;21457;-85
2022/07/27 00:51:47;;;;;;;16.95;8.50;;;;;;;;;;1691855;84;20837;-85
2022/07/27 00:54:13;;;;;;;17.32;8.18;;;;;;;;;;1691853;84;21030;-86
2022/07/27 00:56:39;;;;;;;18.48;8.53;;;;;;;;;;1692003;84;20990;-85
2022/07/27 00:59:05;;;;;;;16.23;8.03;;;;;;;;;;1683740;84;21163;-85
2022/07/27 01:01:31;;;;;;;20.45;8.58;;;;;;;;;;1691846;84;21527;-85
2022/07/27 01:03:56;;;;;;;20.85;9.00;;;;;;;;;;1691809;84;20837;-85
2022/07/27 01:06:22;;;;;;;21.20;8.70;;;;;;;;;;1691743;84;20904;-85
2022/07/27 01:08:48;;;;;;;25.80;8.78;;;;;;;;;;1691525;84;20962;-85
2022/07/27 01:11:14;;;;;;;20.30;8.70;;;;;;;;;;1691847;84;21793;-85
2022/07/27 01:13:42;;;;;;;15.65;8.58;;;;;;;;;;1691858;84;21019;-85
2022/07/27 01:16:08;;;;;;;16.82;8.45;;;;;;;;;;1691988;84;21007;-85
2022/07/27 01:18:36;;;;;;;16.87;9.13;;;;;;;;;;1691809;84;21079;-85
2022/07/27 01:21:04;;;;;;;20.92;8.70;;;;;;;;;;1691832;84;21026;-85
2022/07/27 01:23:31;;;;;;;14.13;8.28;;;;;;;;;;1691801;84;21324;-85
2022/07/27 01:25:57;;;;;;;15.75;7.65;;;;;;;;;;1691516;84;21019;-85
2022/07/27 01:28:23;;;;;;;18.25;8.70;;;;;;;;;;1691769;84;21011;-85
2022/07/27 01:30:49;;;;;;;21.57;8.25;;;;;;;;;;1691828;84;20962;-85
2022/07/27 01:33:15;;;;;;;13.90;7.45;;;;;;;;;;1691964;84;20911;-85
2022/07/27 01:35:41;;;;;;;17.73;8.15;;;;;;;;;;1690914;84;21008;-85
2022/07/27 01:38:08;;;;;;;19.45;8.75;;;;;;;;;;1691685;84;21447;-85
2022/07/27 01:40:35;;;;;;;19.25;8.58;;;;;;;;;;1691877;84;21015;-86
2022/07/27 01:43:02;;;;;;;18.77;8.58;;;;;;;;;;1691533;84;21015;-86
2022/07/27 01:45:28;;;;;;;14.55;8.23;;;;;;;;;;1690058;84;21050;-85
2022/07/27 01:47:54;;;;;;;17.62;8.53;;;;;;;;;;1691728;84;21911;-85
2022/07/27 01:50:20;;;;;;;18.30;7.70;;;;;;;;;;1691677;84;20903;-85
2022/07/27 01:52:45;;;;;;;18.23;8.50;;;;;;;;;;1691792;84;20891;-85
2022/07/27 01:55:11;;;;;;;15.93;8.30;;;;;;;;;;1691802;84;21590;-85
2022/07/27 01:57:38;;;;;;;21.85;8.33;;;;;;;;;;1691828;84;20915;-85
2022/07/27 02:00:06;;;;;;;19.32;8.25;;;;;;;;;;1691770;84;21255;-85
2022/07/27 02:02:32;;;;;;;17.15;7.78;;;;;;;;;;1691771;84;21522;-85
2022/07/27 02:04:58;;;;;;;25.25;9.05;;;;;;;;;;1691947;84;20903;-85
2022/07/27 02:07:23;;;;;;;18.27;8.30;;;;;;;;;;1690600;84;20987;-85
2022/07/27 02:09:49;;;;;;;15.83;7.80;;;;;;;;;;1691699;84;20931;-85
2022/07/27 02:14:59;;;;;;;16.05;7.47;;;;;;;;;;1691671;84;20952;-85
2022/07/27 02:17:26;;;;;;;15.63;8.65;;;;;;;;;;1691900;84;21731;-85
2022/07/27 02:19:51;;;;;;;25.08;7.87;;;;;;;;;;1691814;84;20967;-84
2022/07/27 02:22:17;;;;;;;16.17;7.80;;;;;;;;;;1687396;84;21027;-85
2022/07/27 02:24:43;;;;;;;18.40;7.87;;;;;;;;;;1691921;84;21092;-85
2022/07/27 02:27:08;;;;;;;18.12;7.72;;;;;;;;;;1691964;84;20979;-84
2022/07/27 02:29:34;;;;;;;17.90;7.80;;;;;;;;;;1692023;84;21026;-84
2022/07/27 02:32:00;;;;;;;17.80;7.50;;;;;;;;;;1691860;84;20858;-85
2022/07/27 02:34:26;;;;;;;12.40;6.90;;;;;;;;;;1691631;84;21118;-85
2022/07/27 02:36:52;;;;;;;12.98;6.92;;;;;;;;;;1692190;84;21371;-85
2022/07/27 02:39:17;;;;;;;13.88;7.25;;;;;;;;;;1692000;84;20876;-85
2022/07/27 02:41:45;;;;;;;11.38;6.85;;;;;;;;;;1691904;84;20915;-85
2022/07/27 02:44:13;;;;;;;17.55;7.37;;;;;;;;;;1691901;84;21584;-85
2022/07/27 02:46:39;;;;;;;16.10;7.17;;;;;;;;;;1691545;84;21035;-85
2022/07/27 02:49:04;;;;;;;17.30;7.80;;;;;;;;;;1691946;84;21904;-85
2022/07/27 02:51:30;;;;;;;15.90;7.20;;;;;;;;;;1691805;84;20844;-84
2022/07/27 02:53:56;;;;;;;21.50;8.48;;;;;;;;;;1692092;84;21636;-85
2022/07/27 02:56:21;;;;;;;18.37;8.83;;;;;;;;;;1691904;84;20892;-85
2022/07/27 02:58:47;;;;;;;18.92;7.60;;;;;;;;;;1691952;84;21065;-85
2022/07/27 03:01:13;;;;;;;26.02;7.62;;;;;;;;;;1691748;84;21170;-85
2022/07/27 03:03:40;;;;;;;12.05;6.70;;;;;;;;;;1691964;84;21042;-85
2022/07/27 03:08:35;;;;;;;12.68;6.28;;;;;;;;;;1663084;86;21691;-85
2022/07/27 03:11:01;;;;;;;17.62;7.75;;;;;;;;;;1635393;87;21084;-85
2022/07/27 03:13:27;;;;;;;13.62;7.62;;;;;;;;;;1597461;89;21237;-85
2022/07/27 03:15:54;;;;;;;12.60;7.42;;;;;;;;;;1608242;89;21039;-85
2022/07/27 03:18:20;;;;;;;13.10;7.10;;;;;;;;;;1598764;89;21574;-85
2022/07/27 03:20:46;;;;;;;14.53;7.75;;;;;;;;;;1613031;89;21093;-85
2022/07/27 03:23:12;;;;;;;14.45;7.67;;;;;;;;;;1608712;89;21039;-86
2022/07/27 03:25:38;;;;;;;12.23;7.70;;;;;;;;;;1598813;89;21116;-86
2022/07/27 03:28:04;;;;;;;14.63;7.45;;;;;;;;;;1612794;89;21030;-85
2022/07/27 03:30:30;;;;;;;14.50;7.10;;;;;;;;;;1612733;89;20927;-86
2022/07/27 03:32:56;;;;;;;17.12;8.00;;;;;;;;;;1608662;89;21623;-86
2022/07/27 03:35:21;;;;;;;11.15;7.08;;;;;;;;;;1598778;89;21083;-86
2022/07/27 03:37:47;;;;;;;13.35;7.42;;;;;;;;;;1613015;89;21262;-86
2022/07/27 03:40:13;;;;;;;16.65;8.08;;;;;;;;;;1608611;89;20920;-86
2022/07/27 03:42:39;;;;;;;13.88;7.65;;;;;;;;;;1598833;88;20866;-86
2022/07/27 03:45:06;;;;;;;15.50;8.15;;;;;;;;;;1612795;89;21097;-86
2022/07/27 03:47:31;;;;;;;14.68;8.38;;;;;;;;;;1608727;89;21607;-86
2022/07/27 03:49:57;;;;;;;16.10;8.93;;;;;;;;;;1598690;89;21112;-86
2022/07/27 03:52:23;;;;;;;14.53;7.95;;;;;;;;;;1612772;89;20903;-86
2022/07/27 03:54:48;;;;;;;14.30;7.37;;;;;;;;;;1608662;89;20995;-87
2022/07/27 03:57:14;;;;;;;16.77;7.97;;;;;;;;;;1598747;89;21063;-86
2022/07/27 03:59:40;;;;;;;14.80;8.00;;;;;;;;;;1612852;89;20864;-86
2022/07/27 04:02:06;;;;;;;14.95;7.60;;;;;;;;;;1608539;89;21174;-87
2022/07/27 04:04:31;;;;;;;12.07;8.35;;;;;;;;;;1602989;87;21559;-87
2022/07/27 04:06:58;;;;;;;13.25;7.78;;;;;;;;;;1663681;86;21066;-87
2022/07/27 04:09:23;;;;;;;15.50;8.95;;;;;;;;;;1663190;85;21111;-88
2022/07/27 04:11:49;;;;;;;12.03;8.03;;;;;;;;;;1645629;87;20835;-88
2022/07/27 04:14:16;;;;;;;15.88;8.45;;;;;;;;;;1645450;87;21061;-88
2022/07/27 04:16:41;;;;;;;13.88;8.38;;;;;;;;;;1645640;87;21636;-88
2022/07/27 04:19:07;;;;;;;12.25;8.35;;;;;;;;;;1645564;87;20847;-89
2022/07/27 04:21:34;;;;;;;11.63;7.72;;;;;;;;;;1645631;87;22396;-89
2022/07/27 04:24:00;;;;;;;10.50;7.80;;;;;;;;;;1645366;87;21605;-88
2022/07/27 04:26:27;;;;;;;16.77;8.28;;;;;;;;;;1645390;87;21103;-88
2022/07/27 04:28:53;;;;;;;12.40;8.40;;;;;;;;;;1645418;87;21006;-88
2022/07/27 04:31:18;;;;;;;11.03;7.55;;;;;;;;;;1645795;87;21651;-89
2022/07/27 04:33:44;;;;;;;15.10;8.80;;;;;;;;;;1645613;87;20889;-88
2022/07/27 04:36:10;;;;;;;13.43;8.10;;;;;;;;;;1645586;87;21016;-88
2022/07/27 04:38:36;;;;;;;11.57;8.48;;;;;;;;;;1645672;87;21053;-89
2022/07/27 04:41:01;;;;;;;10.95;8.13;;;;;;;;;;1645504;87;21068;-89
2022/07/27 04:43:27;;;;;;;11.83;8.00;;;;;;;;;;1645408;87;21022;-89
2022/07/27 04:45:53;;;;;;;17.48;8.88;;;;;;;;;;1645555;87;20871;-90
2022/07/27 04:48:18;;;;;;;12.35;8.05;;;;;;;;;;1645637;87;20886;-89
2022/07/27 04:50:46;;;;;;;14.55;8.60;;;;;;;;;;1645610;87;21190;-91
2022/07/27 04:53:13;;;;;;;10.60;8.35;;;;;;;;;;1645196;87;21506;-89
2022/07/27 04:55:44;;;;;;;13.38;8.23;;;;;;;;;;1645577;87;21056;-90
2022/07/27 04:58:10;;;;;;;11.60;8.15;;;;;;;;;;1645551;87;21064;-91
2022/07/27 05:00:36;;;;;;;11.18;8.10;;;;;;;;;;1645650;87;21036;-92
2022/07/27 05:03:03;;;;;;;8.88;7.20;;;;;;;;;;1645326;87;21137;-91
2022/07/27 05:05:29;;;;;;;11.15;7.30;;;;;;;;;;1645532;87;21057;-91
2022/07/27 05:07:54;;;;;;;10.05;8.00;;;;;;;;;;1645474;87;21017;-91
2022/07/27 05:10:20;;;;;;;12.73;7.45;;;;;;;;;;1645523;87;21539;-92
2022/07/27 05:12:47;;;;;;;9.55;6.80;;;;;;;;;;1645451;87;20910;-91
2022/07/27 05:15:13;;;;;;;10.05;6.97;;;;;;;;;;1645642;87;21136;-91
2022/07/27 05:17:39;;;;;;;11.03;6.90;;;;;;;;;;1645566;87;21072;-91
2022/07/27 05:20:05;;;;;;;10.48;6.70;;;;;;;;;;1645598;87;20925;-91
2022/07/27 05:22:31;;;;;;;9.65;6.60;;;;;;;;;;1645630;87;21029;-91
2022/07/27 05:24:57;;;;;;;9.43;6.70;;;;;;;;;;1645430;87;20926;-91
2022/07/27 05:27:22;;;;;;;7.05;6.35;;;;;;;;;;1645461;87;21101;-91
2022/07/27 05:29:48;;;;;;;9.30;6.50;;;;;;;;;;1645510;87;20941;-91
2022/07/27 05:32:14;;;;;;;10.75;6.60;;;;;;;;;;1645271;87;21014;-91
2022/07/27 05:34:40;;;;;;;8.78;6.28;;;;;;;;;;1645476;87;21103;-90
2022/07/27 05:37:07;;;;;;;8.00;5.92;;;;;;;;;;1645285;87;21116;-90
2022/07/27 05:39:33;;;;;;;9.08;6.58;;;;;;;;;;1645509;87;21223;-91
2022/07/27 05:42:03;;;;;;;7.58;6.30;;;;;;;;;;1645707;87;20863;-91
2022/07/27 05:44:29;;;;;;;9.38;6.55;;;;;;;;;;1645498;87;21525;-87
2022/07/27 05:46:55;;;;;;;7.60;6.65;;;;;;;;;;1645766;87;20858;-87
2022/07/27 05:49:21;;;;;;;8.13;6.95;;;;;;;;;;1645566;87;21037;-88
2022/07/27 05:51:47;;;;;;;8.50;6.35;;;;;;;;;;1645594;87;21132;-88
2022/07/27 05:54:13;;;;;;;7.50;6.75;;;;;;;;;;1645498;87;20929;-89
2022/07/27 05:56:38;;;;;;;7.90;6.60;;;;;;;;;;1646037;87;21674;-89
2022/07/27 05:59:04;;;;;;;8.60;5.92;;;;;;;;;;1645800;87;20918;-88
2022/07/27 06:01:30;;;;;;;10.10;5.78;;;;;;;;;;1645464;87;21618;-87
2022/07/27 06:03:56;;;;;;;7.47;6.28;;;;;;;;;;1645822;87;21171;-88
2022/07/27 06:09:06;;;;;;;7.30;5.90;;;;;;;;;;1645357;87;21102;-88
2022/07/27 06:11:32;;;;;;;6.92;5.62;;;;;;;;;;1646665;87;20905;-88
2022/07/27 06:13:57;;;;;;;7.60;5.50;;;;;;;;;;1645885;87;21013;-88
2022/07/27 06:16:23;;;;;;;6.05;5.42;;;;;;;;;;1645667;87;22103;-88
2022/07/27 06:18:49;;;;;;;6.25;5.62;;;;;;;;;;1645495;87;20906;-89
2022/07/27 06:21:15;;;;;;;7.40;5.92;;;;;;;;;;1645436;87;20892;-88
2022/07/27 06:23:41;;;;;;;8.70;5.50;;;;;;;;;;1645906;87;21033;-88
2022/07/27 06:26:07;;;;;;;6.12;5.53;;;;;;;;;;1645671;87;20986;-87
2022/07/27 06:28:33;;;;;;;6.45;5.78;;;;;;;;;;1645416;87;21076;-88
2022/07/27 06:30:59;;;;;;;5.15;4.65;;;;;;;;;;1645577;87;20969;-88
2022/07/27 06:33:28;;;;;;;8.43;5.20;;;;;;;;;;1645806;87;20902;-89
2022/07/27 06:35:54;;;;;;;7.45;5.15;;;;;;;;;;1645208;87;21025;-88
2022/07/27 06:38:21;;;;;;;7.00;5.20;;;;;;;;;;1645843;87;21572;-89
2022/07/27 06:40:51;;;;;;;5.20;4.70;;;;;;;;;;1645692;87;21358;-88
2022/07/27 06:43:14;;;;;;;6.95;5.12;;;;;;;;;;1642007;87;21030;-88
2022/07/27 06:45:40;;;;;;;5.20;4.70;;;;;;;;;;1624904;87;20941;-88
2022/07/27 06:48:06;;;;;;;5.90;5.30;;;;;;;;;;1645569;87;22462;-89
2022/07/27 06:50:32;;;;;;;8.45;5.72;;;;;;;;;;1645474;87;21005;-89
2022/07/27 06:52:58;;;;;;;5.25;4.75;;;;;;;;;;1645452;87;21875;-88
2022/07/27 06:55:24;;;;;;;5.08;4.67;;;;;;;;;;1645619;87;20977;-89
2022/07/27 06:57:49;;;;;;;4.70;4.35;;;;;;;;;;1645648;87;21006;-89
2022/07/27 07:00:15;;;;;;;4.92;4.50;;;;;;;;;;1645752;87;20949;-90
2022/07/27 07:03:04;;;;;;;8.13;4.70;;;;;;;;;;1645833;87;21009;-86
2022/07/27 07:05:31;;;;;;;6.80;4.62;;;;;;;;;;1645491;87;21150;-88
2022/07/27 07:07:57;;;;;;;7.30;4.75;;;;;;;;;;1645646;87;20974;-89
2022/07/27 07:10:24;;;;;;;5.05;4.62;;;;;;;;;;1645541;87;21084;-90
2022/07/27 07:12:54;;;;;;;5.25;4.75;;;;;;;;;;1647247;87;21085;-89
2022/07/27 07:15:21;;;;;;;5.40;4.70;;;;;;;;;;1648763;86;21025;-90
2022/07/27 07:17:47;;;;;;;4.83;4.40;;;;;;;;;;1649042;86;21215;-90
2022/07/27 07:20:12;;;;;;;5.00;4.58;;;;;;;;;;1649113;86;21056;-89
2022/07/27 07:22:38;;;;;;;6.62;4.90;;;;;;;;;;1621527;88;21113;-89
2022/07/27 07:25:04;;;;;;;5.30;4.80;;;;;;;;;;1649322;86;21355;-90
2022/07/27 07:27:30;;;;;;;4.80;4.40;;;;;;;;;;1649189;86;21049;-89
2022/07/27 07:29:56;;;;;;;4.67;4.28;;;;;;;;;;1649009;87;21246;-89
2022/07/27 07:32:23;;;;;;;6.35;4.90;;;;;;;;;;1649077;87;21814;-89
2022/07/27 07:34:49;;;;;;;6.03;4.62;;;;;;;;;;1648996;86;21596;-88
2022/07/27 07:37:16;;;;;;;5.28;4.87;;;;;;;;;;1649284;86;21066;-87
2022/07/27 07:39:42;;;;;;;5.05;4.65;;;;;;;;;;1649294;86;21088;-88
2022/07/27 07:42:08;;;;;;;5.33;4.83;;;;;;;;;;1649279;87;21090;-88
2022/07/27 07:44:33;;;;;;;5.53;5.08;;;;;;;;;;1649066;87;21051;-88
2022/07/27 07:46:59;;;;;;;7.10;4.90;;;;;;;;;;1648940;86;21020;-88
2022/07/27 07:49:25;;;;;;;6.85;4.95;;;;;;;;;;1649066;86;20918;-90
2022/07/27 07:51:51;;;;;;;5.55;5.05;;;;;;;;;;1649208;87;21064;-88
2022/07/27 07:54:17;;;;;;;5.40;4.90;;;;;;;;;;1621706;88;21098;-89
2022/07/27 07:56:43;;;;;;;5.03;4.62;;;;;;;;;;1624167;88;20922;-89
2022/07/27 07:59:09;;;;;;;5.33;4.85;;;;;;;;;;1623860;88;20932;-90
2022/07/27 08:01:35;;;;;;;4.90;4.40;;;;;;;;;;1624130;88;21637;-89
2022/07/27 08:04:00;;;;;;;6.05;4.30;;;;;;;;;;1624137;88;20973;-89
2022/07/27 08:06:28;;;;;;;4.85;4.28;;;;;;;;;;1623819;88;21429;-89
2022/07/27 08:08:54;;;;;;;5.05;4.03;;;;;;;;;;1623603;88;21025;-88
2022/07/27 08:11:20;;;;;;;4.42;4.10;;;;;;;;;;1623892;88;20937;-89
2022/07/27 08:13:46;;;;;;;4.78;4.30;;;;;;;;;;1625806;87;21029;-90
2022/07/27 08:16:12;;;;;;;6.47;3.87;;;;;;;;;;1627260;88;21734;-90
2022/07/27 08:18:38;;;;;;;6.53;4.10;;;;;;;;;;1627383;88;21149;-91
2022/07/27 08:21:04;;;;;;;4.55;4.15;;;;;;;;;;1627125;88;21087;-89
2022/07/27 08:23:32;;;;;;;4.37;3.98;;;;;;;;;;1627281;87;20915;-90
2022/07/27 08:25:58;;;;;;;4.60;4.03;;;;;;;;;;1626987;88;22329;-87
2022/07/27 08:28:25;;;;;;;6.70;4.00;;;;;;;;;;1627020;88;21013;-89
2022/07/27 08:30:51;;;;;;;4.15;3.72;;;;;;;;;;1627147;88;21090;-89
2022/07/27 08:33:17;;;;;;;6.20;3.62;;;;;;;;;;1627189;88;20901;-89
2022/07/27 08:35:44;;;;;;;4.70;4.30;;;;;;;;;;1627202;88;20913;-89
2022/07/27 08:38:10;;;;;;;4.03;3.70;;;;;;;;;;1627198;88;21064;-89
2022/07/27 08:40:36;;;;;;;7.62;4.00;;;;;;;;;;1608883;87;20945;-89
2022/07/27 08:43:03;;;;;;;5.10;4.15;;;;;;;;;;1627019;88;21187;-88
2022/07/27 08:45:29;;;;;;;4.83;3.87;;;;;;;;;;1627119;88;21017;-88
2022/07/27 08:47:55;;;;;;;4.30;3.90;;;;;;;;;;1626901;88;21044;-89
2022/07/27 08:50:24;;;;;;;4.60;3.72;;;;;;;;;;1627068;88;21608;-88
2022/07/27 08:53:04;;;;;;;4.05;3.65;;;;;;;;;;1608877;87;20970;-88
2022/07/27 08:55:35;;;;;;;5.65;3.72;;;;;;;;;;1627124;87;22129;-88
2022/07/27 08:58:01;;;;;;;4.70;3.95;;;;;;;;;;1627116;88;21029;-89
2022/07/27 09:00:28;;;;;;;4.97;3.55;;;;;;;;;;1627129;88;21025;-88
2022/07/27 09:02:54;;;;;;;5.22;3.72;;;;;;;;;;1627180;88;21060;-87
2022/07/27 09:05:20;;;;;;;5.65;3.37;;;;;;;;;;1627144;88;21580;-88
2022/07/27 09:07:46;;;;;;;7.47;3.35;;;;;;;;;;1627140;87;21128;-88
2022/07/27 09:10:31;;;;;;;4.70;3.45;;;;;;;;;;1626994;88;20929;-88
2022/07/27 09:12:57;;;;;;;6.17;3.42;;;;;;;;;;1596413;89;21085;-89
2022/07/27 09:15:23;;;;;;;4.30;3.70;;;;;;;;;;1590593;90;21134;-89
2022/07/27 09:17:49;;;;;;;4.10;3.55;;;;;;;;;;1621488;88;20905;-89
2022/07/27 09:20:16;;;;;;;4.33;3.33;;;;;;;;;;1621387;88;21150;-88
2022/07/27 09:22:46;;;;;;;6.25;3.40;;;;;;;;;;1621292;88;21131;-89
2022/07/27 09:25:14;;;;;;;4.28;3.20;;;;;;;;;;1621382;88;21049;-88
2022/07/27 09:27:41;;;;;;;6.05;3.40;;;;;;;;;;1621423;88;21049;-89
2022/07/27 09:30:10;;;;;;;5.97;3.72;;;;;;;;;;1621335;88;21536;-90
2022/07/27 09:32:36;;;;;;;5.47;3.47;;;;;;;;;;1621555;88;21133;-89
2022/07/27 09:35:25;;;;;;;5.87;3.40;;;;;;;;;;1621260;88;21041;-87
2022/07/27 09:37:51;;;;;;;5.37;3.10;;;;;;;;;;1621585;88;20985;-88
2022/07/27 09:40:20;;;;;;;4.80;2.90;;;;;;;;;;1621555;88;20921;-88
2022/07/27 09:42:47;;;;;;;4.67;3.00;;;;;;;;;;1595541;89;21081;-88
2022/07/27 09:45:30;;;;;;;6.00;3.10;;;;;;;;;;1595403;89;21110;-89
2022/07/27 09:48:13;;;;;;;4.55;3.30;;;;;;;;;;1595668;89;21086;-89
2022/07/27 09:51:00;;;;;;;4.60;3.67;;;;;;;;;;1595751;89;21038;-87
2022/07/27 09:53:29;;;;;;;3.75;3.22;;;;;;;;;;1595430;89;21208;-87
2022/07/27 09:56:00;;;;;;;4.92;2.95;;;;;;;;;;1595635;89;21667;-88
2022/07/27 09:58:45;;;;;;;4.97;3.02;;;;;;;;;;1595773;89;21905;-87
2022/07/27 10:01:20;;;;;;;3.47;2.75;;;;;;;;;;1569535;91;21074;-87
2022/07/27 10:03:48;;;;;;;4.42;3.20;;;;;;;;;;1567640;91;21106;-86
2022/07/27 10:06:15;;;;;;;3.20;2.62;;;;;;;;;;1566834;91;21625;-87
2022/07/27 10:08:43;;;;;;;4.08;3.08;;;;;;;;;;1591787;90;21099;-87
2022/07/27 10:11:09;;;;;;;3.37;2.95;;;;;;;;;;1551462;92;21150;-87
2022/07/27 10:13:35;;;;;;;3.50;2.65;;;;;;;;;;1593266;89;21127;-88
2022/07/27 10:16:06;;;;;;;6.92;2.85;;;;;;;;;;1538288;92;21022;-87
2022/07/27 10:18:41;;;;;;;3.22;2.60;;;;;;;;;;1596265;89;21571;-88
2022/07/27 10:21:09;;;;;;;5.33;2.55;;;;;;;;;;1555626;92;21105;-87
2022/07/27 10:23:37;;;;;;;3.70;2.90;;;;;;;;;;1596444;89;21097;-84
2022/07/27 10:26:21;;;;;;;5.30;2.83;;;;;;;;;;1557914;92;21051;-87
2022/07/27 10:29:04;;;;;;;5.72;2.75;;;;;;;;;;1596285;89;21135;-87
2022/07/27 10:31:34;;;;;;;3.77;2.67;;;;;;;;;;1558177;92;21250;-86
2022/07/27 10:34:02;;;;;;;3.00;2.70;;;;;;;;;;1596432;89;21134;-87
2022/07/27 10:36:34;;;;;;;3.35;2.72;;;;;;;;;;1558123;92;21593;-86
2022/07/27 10:39:03;;;;;;;8.23;2.72;;;;;;;;;;1611672;86;21071;-86
2022/07/27 10:41:38;;;;;;;4.30;2.67;;;;;;;;;;1660661;86;21097;-90
2022/07/27 10:44:20;;;;;;;3.33;2.40;;;;;;;;;;1660635;86;21106;-87
2022/07/27 10:46:55;;;;;;;4.10;2.85;;;;;;;;;;1661117;86;21035;-86
2022/07/27 10:49:27;;;;;;;5.55;2.70;;;;;;;;;;1660681;86;21223;-86
2022/07/27 10:51:54;;;;;;;5.72;2.60;;;;;;;;;;1661067;86;21055;-86
2022/07/27 10:54:25;;;;;;;3.85;2.70;;;;;;;;;;1660671;86;21050;-86
2022/07/27 10:56:53;;;;;;;2.57;2.27;;;;;;;;;;1612695;89;21034;-87
2022/07/27 10:59:44;;;;;;;3.98;2.70;;;;;;;;;;1612842;89;21041;-86
2022/07/27 11:02:12;;;;;;;3.40;2.45;;;;;;;;;;1568347;91;21236;-86
2022/07/27 11:04:47;;;;;;;3.80;2.80;;;;;;;;;;1568435;91;21011;-89
2022/07/27 11:07:19;;;;;;;5.08;2.70;;;;;;;;;;1568906;91;21071;-89
2022/07/27 11:09:47;;;;;;;3.15;2.60;;;;;;;;;;1568671;91;21115;-90
2022/07/27 11:12:16;;;;;;;2.77;2.25;;;;;;;;;;1568599;91;21558;-90
2022/07/27 11:14:46;;;;;;;3.85;2.45;;;;;;;;;;1565255;90;21159;-89
2022/07/27 11:17:12;;;;;;;5.45;2.55;;;;;;;;;;1564198;91;21108;-86
2022/07/27 11:19:38;;;;;;;6.30;2.65;;;;;;;;;;1564360;91;21123;-87
2022/07/27 11:22:03;;;;;;;3.77;2.70;;;;;;;;;;1564333;91;21602;-86
2022/07/27 11:24:29;;;;;;;3.75;2.75;;;;;;;;;;1564320;91;20898;-86
2022/07/27 11:26:55;;;;;;;4.62;3.05;;;;;;;;;;1564368;91;21124;-86
2022/07/27 11:29:22;;;;;;;3.30;2.60;;;;;;;;;;1564340;91;21179;-86
2022/07/27 11:31:51;;;;;;;3.72;2.47;;;;;;;;;;1563858;91;21064;-86
2022/07/27 11:34:19;;;;;;;4.42;2.80;;;;;;;;;;1564150;91;21115;-86
2022/07/27 11:36:50;;;;;;;3.52;2.55;;;;;;;;;;1564075;91;21580;-86
2022/07/27 11:39:19;;;;;;;5.90;2.40;;;;;;;;;;1574821;91;21269;-87
2022/07/27 11:41:45;;;;;;;4.47;2.62;;;;;;;;;;1574524;90;21106;-86
2022/07/27 11:44:13;;;;;;;9.03;2.72;;;;;;;;;;1574484;90;20944;-86
2022/07/27 11:46:44;;;;;;;6.30;2.60;;;;;;;;;;1575065;90;21658;-85
2022/07/27 11:49:22;;;;;;;2.70;2.30;;;;;;;;;;1574673;90;22867;-86
2022/07/27 11:51:48;;;;;;;3.30;2.45;;;;;;;;;;1574411;91;21068;-86
2022/07/27 11:54:22;;;;;;;2.70;2.42;;;;;;;;;;1591265;89;21094;-86
2022/07/27 11:56:55;;;;;;;4.15;2.80;;;;;;;;;;1596160;89;21658;-85
2022/07/27 11:59:26;;;;;;;4.00;2.47;;;;;;;;;;1596371;89;21070;-85
2022/07/27 12:01:54;;;;;;;3.70;2.70;;;;;;;;;;1596338;89;21093;-87
2022/07/27 12:04:23;;;;;;;3.17;2.30;;;;;;;;;;1596354;89;21134;-86
2022/07/27 12:07:05;;;;;;;2.70;2.42;;;;;;;;;;1536739;93;21037;-86
2022/07/27 12:09:34;;;;;;;7.20;2.75;;;;;;;;;;1537047;93;21745;-86
2022/07/27 12:12:17;;;;;;;2.67;2.40;;;;;;;;;;1536736;92;21174;-85
2022/07/27 12:14:49;;;;;;;3.33;2.67;;;;;;;;;;1535772;93;21064;-87
2022/07/27 12:17:18;;;;;;;5.70;2.52;;;;;;;;;;1551189;92;22036;-86
2022/07/27 12:20:10;;;;;;;5.65;2.72;;;;;;;;;;1515459;94;21200;-86
2022/07/27 12:22:42;;;;;;;3.42;2.85;;;;;;;;;;1580868;90;21061;-86
2022/07/27 12:25:18;;;;;;;3.80;2.65;;;;;;;;;;1551413;92;21129;-87
2022/07/27 12:27:59;;;;;;;5.10;2.35;;;;;;;;;;1551154;92;21673;-86
2022/07/27 12:30:37;;;;;;;4.25;3.02;;;;;;;;;;1527782;93;21169;-86
2022/07/27 12:33:07;;;;;;;5.00;2.50;;;;;;;;;;1503760;95;21110;-85
2022/07/27 12:35:35;;;;;;;3.20;2.65;;;;;;;;;;1481524;96;21591;-85
2022/07/27 12:38:06;;;;;;;3.65;2.60;;;;;;;;;;1481692;96;21058;-84
2022/07/27 12:40:34;;;;;;;4.80;2.45;;;;;;;;;;1481693;96;21026;-84
2022/07/27 12:43:03;;;;;;;5.97;2.83;;;;;;;;;;1491873;95;21184;-85
2022/07/27 12:45:34;;;;;;;4.15;2.50;;;;;;;;;;1443251;98;21673;-84
2022/07/27 12:48:08;;;;;;;3.70;2.67;;;;;;;;;;1442551;99;21165;-85
2022/07/27 12:50:34;;;;;;;5.00;2.92;;;;;;;;;;1442492;99;21120;-84
2022/07/27 12:53:00;;;;;;;5.25;2.80;;;;;;;;;;1442360;99;21215;-84
2022/07/27 12:55:26;;;;;;;3.60;2.77;;;;;;;;;;1442572;99;21149;-84
2022/07/27 12:57:55;;;;;;;3.37;2.35;;;;;;;;;;1442508;99;21093;-84
2022/07/27 13:00:23;;;;;;;4.30;3.10;;;;;;;;;;1442363;99;21048;-85
2022/07/27 13:02:50;;;;;;;3.55;2.90;;;;;;;;;;1442260;99;21620;-85
2022/07/27 13:05:16;;;;;;;6.65;3.20;;;;;;;;;;1442768;99;21089;-84
2022/07/27 13:07:47;;;;;;;4.50;2.95;;;;;;;;;;1441997;99;48820;-85
2022/07/27 13:10:17;;;;;;;4.90;3.10;;;;;;;;;;1442241;99;21104;-84
2022/07/27 13:12:42;;;;;;;6.22;3.05;;;;;;;;;;1442433;98;21056;-84
2022/07/27 13:15:08;;;;;;;4.83;2.90;;;;;;;;;;1446422;98;20939;-84
2022/07/27 13:17:34;;;;;;;5.65;3.20;;;;;;;;;;1444726;98;21122;-85
2022/07/27 13:20:01;;;;;;;3.95;2.92;;;;;;;;;;1444825;97;21214;-85
2022/07/27 13:22:27;;;;;;;7.90;2.75;;;;;;;;;;1445088;98;21265;-85
2022/07/27 13:24:53;;;;;;;4.92;2.92;;;;;;;;;;1444985;98;21060;-85
2022/07/27 13:27:19;;;;;;;3.33;2.60;;;;;;;;;;1454068;97;20977;-85
2022/07/27 13:29:45;;;;;;;3.52;2.67;;;;;;;;;;1472429;96;21061;-85
2022/07/27 13:32:11;;;;;;;6.87;3.10;;;;;;;;;;1498246;94;21116;-84
2022/07/27 13:34:37;;;;;;;3.58;2.92;;;;;;;;;;1519116;94;21180;-84
2022/07/27 13:37:02;;;;;;;7.05;3.12;;;;;;;;;;1521208;94;20957;-84
2022/07/27 13:39:31;;;;;;;4.67;2.92;;;;;;;;;;1521196;94;21607;-84
2022/07/27 13:41:57;;;;;;;4.53;2.80;;;;;;;;;;1555730;88;20991;-84
2022/07/27 13:44:23;;;;;;;4.60;3.10;;;;;;;;;;1627722;88;21057;-84
2022/07/27 13:46:49;;;;;;;2.98;2.47;;;;;;;;;;1627453;88;21025;-84
2022/07/27 13:49:16;;;;;;;4.55;3.12;;;;;;;;;;1599812;88;21178;-84
2022/07/27 13:51:43;;;;;;;4.22;2.87;;;;;;;;;;1627350;88;21044;-85
2022/07/27 13:54:10;;;;;;;4.20;2.55;;;;;;;;;;1600026;88;21124;-83
2022/07/27 13:56:35;;;;;;;3.52;2.67;;;;;;;;;;1627774;88;21321;-83
2022/07/27 13:59:03;;;;;;;4.87;3.10;;;;;;;;;;1627477;87;20889;-83
2022/07/27 14:01:29;;;;;;;5.35;2.65;;;;;;;;;;1627466;88;21060;-83
2022/07/27 14:03:54;;;;;;;3.87;2.77;;;;;;;;;;1551721;91;20946;-84
2022/07/27 14:06:21;;;;;;;3.50;2.90;;;;;;;;;;1577356;91;21015;-84
2022/07/27 14:08:46;;;;;;;5.87;2.72;;;;;;;;;;1577447;89;21078;-85
2022/07/27 14:11:12;;;;;;;6.22;2.55;;;;;;;;;;1577336;89;21022;-85
2022/07/27 14:13:38;;;;;;;5.95;2.72;;;;;;;;;;1577166;90;20960;-84
2022/07/27 14:16:06;;;;;;;4.15;2.62;;;;;;;;;;1577362;89;21080;-84
2022/07/27 14:18:33;;;;;;;4.72;3.20;;;;;;;;;;1577066;89;21091;-85
2022/07/27 14:21:02;;;;;;;3.98;3.00;;;;;;;;;;1577323;89;21286;-84
2022/07/27 14:23:29;;;;;;;3.47;3.00;;;;;;;;;;1577375;91;21130;-85
2022/07/27 14:25:56;;;;;;;5.12;2.75;;;;;;;;;;1577230;89;21154;-85
2022/07/27 14:28:22;;;;;;;3.10;2.67;;;;;;;;;;1603946;87;21048;-84
2022/07/27 14:30:48;;;;;;;3.67;2.80;;;;;;;;;;1639163;87;21083;-85
2022/07/27 14:33:15;;;;;;;3.00;2.52;;;;;;;;;;1639209;87;21068;-85
2022/07/27 14:35:41;;;;;;;4.03;2.83;;;;;;;;;;1639158;87;21025;-85
2022/07/27 14:38:08;;;;;;;4.97;2.85;;;;;;;;;;1639404;87;20967;-84
2022/07/27 14:40:34;;;;;;;3.98;2.83;;;;;;;;;;1639299;87;21028;-84
2022/07/27 14:42:59;;;;;;;6.10;2.85;;;;;;;;;;1639358;87;21109;-85
2022/07/27 14:45:26;;;;;;;5.72;2.90;;;;;;;;;;1639135;87;21114;-84
2022/07/27 14:47:51;;;;;;;4.30;2.62;;;;;;;;;;1639246;87;21123;-84